Time;durP1;ratioP1;P1;durP2;ratioP2;P2;SDS_P1;SDS_P2;PMS_P1;PMS_P2;Temp;Humidity;BMP_temperature;BMP_pressure;BME280_temperature;BME280_humidity;BME280_pressure;Samples;Min_cycle;Max_cycle;Signal;HPM_P1;HPM_P2
2022/10/20 00:00:41;;;;;;;4.00;2.53;;;7.80;96.40;;;;;;5032884;28;20028;-81
2022/10/20 00:03:07;;;;;;;6.05;2.42;;;7.80;96.30;;;;;;5032733;28;20449;-81
2022/10/20 00:05:32;;;;;;;2.80;2.03;;;7.80;96.30;;;;;;5032715;28;20505;-81
2022/10/20 00:07:58;;;;;;;3.78;2.47;;;7.80;96.20;;;;;;5031400;28;20408;-81
2022/10/20 00:10:24;;;;;;;3.30;1.98;;;7.80;96.10;;;;;;5032692;28;20021;-80
2022/10/20 00:12:50;;;;;;;3.00;1.67;;;7.70;95.80;;;;;;5033118;28;20029;-80
2022/10/20 00:15:16;;;;;;;3.47;2.50;;;7.60;95.90;;;;;;5041156;28;20485;-80
2022/10/20 00:17:43;;;;;;;2.35;1.70;;;7.60;95.90;;;;;;5046632;28;20574;-79
2022/10/20 00:20:10;;;;;;;2.80;2.13;;;7.60;96.00;;;;;;5054505;28;20025;-79
2022/10/20 00:22:36;;;;;;;4.35;2.38;;;7.60;96.20;;;;;;5035809;28;20406;-81
2022/10/20 00:25:01;;;;;;;4.03;2.20;;;7.60;96.40;;;;;;5033929;28;20025;-82
2022/10/20 00:27:27;;;;;;;6.05;2.13;;;7.60;96.30;;;;;;5037812;28;20025;-80
2022/10/20 00:29:53;;;;;;;3.63;2.75;;;7.60;96.30;;;;;;5048331;28;20070;-82
2022/10/20 00:32:19;;;;;;;5.20;2.67;;;7.60;96.30;;;;;;5033939;28;20416;-82
2022/10/20 00:34:45;;;;;;;3.70;2.15;;;7.60;96.40;;;;;;5027512;28;20025;-81
2022/10/20 00:37:10;;;;;;;5.93;2.58;;;7.60;96.40;;;;;;5033184;28;20048;-82
2022/10/20 00:39:36;;;;;;;4.13;2.03;;;7.60;96.20;;;;;;5034172;28;20022;-81
2022/10/20 00:42:03;;;;;;;3.75;2.30;;;7.60;96.30;;;;;;5033312;28;20025;-81
2022/10/20 00:44:51;;;;;;;5.75;3.15;;;7.60;96.40;;;;;;5032282;28;20022;-80
2022/10/20 00:47:39;;;;;;;5.30;2.45;;;7.60;96.40;;;;;;5032324;28;20033;-83
2022/10/20 00:50:12;;;;;;;5.68;2.75;;;7.60;96.40;;;;;;5029902;28;20094;-81
2022/10/20 00:52:40;;;;;;;4.65;2.42;;;7.60;96.60;;;;;;5023157;28;20037;-81
2022/10/20 00:55:08;;;;;;;5.57;2.88;;;7.50;96.70;;;;;;5031231;28;20040;-81
2022/10/20 00:57:35;;;;;;;3.67;2.30;;;7.50;96.90;;;;;;5031827;28;20017;-80
2022/10/20 01:00:01;;;;;;;4.13;2.60;;;7.50;97.00;;;;;;5030456;28;20125;-83
2022/10/20 01:02:43;;;;;;;6.05;3.35;;;7.60;97.10;;;;;;5030973;28;20029;-83
2022/10/20 01:05:10;;;;;;;5.45;2.80;;;7.50;97.20;;;;;;5032454;28;20025;-84
2022/10/20 01:07:38;;;;;;;6.80;2.63;;;7.50;97.30;;;;;;5033239;28;20060;-84
2022/10/20 01:10:05;;;;;;;5.65;2.88;;;7.50;97.40;;;;;;5031299;28;20482;-83
2022/10/20 01:12:37;;;;;;;6.10;3.47;;;7.50;97.50;;;;;;5032464;28;20029;-85
2022/10/20 01:15:18;;;;;;;5.55;3.58;;;7.50;97.60;;;;;;5031660;28;20033;-81
2022/10/20 01:18:41;;;;;;;4.32;3.00;;;7.60;97.70;;;;;;5034646;28;20026;-81
2022/10/20 01:21:43;;;;;;;7.35;4.00;;;7.50;97.60;;;;;;4968084;28;20067;-82
2022/10/20 01:24:35;;;;;;;5.88;3.85;;;7.50;97.80;;;;;;4963429;28;20058;-81
2022/10/20 01:27:32;;;;;;;7.82;3.20;;;7.40;97.90;;;;;;4974513;28;20061;-82
2022/10/20 01:30:07;;;;;;;5.15;3.42;;;7.40;98.10;;;;;;4976071;28;20026;-81
2022/10/20 01:32:51;;;;;;;5.30;2.67;;;7.40;98.20;;;;;;4964653;28;20074;-81
2022/10/20 01:35:19;;;;;;;3.97;2.90;;;7.40;98.20;;;;;;4968714;28;20031;-81
2022/10/20 01:37:52;;;;;;;4.45;2.53;;;7.40;98.20;;;;;;4958578;28;20062;-80
2022/10/20 01:40:45;;;;;;;5.88;2.50;;;7.40;98.10;;;;;;4960018;28;20062;-79
2022/10/20 01:43:13;;;;;;;4.00;2.65;;;7.40;98.10;;;;;;4964417;28;20038;-81
2022/10/20 01:45:44;;;;;;;3.17;1.88;;;7.40;98.20;;;;;;4978908;28;20070;-81
2022/10/20 01:48:16;;;;;;;5.15;2.35;;;7.40;98.20;;;;;;4979096;28;20118;-80
2022/10/20 01:50:46;;;;;;;3.95;2.47;;;7.40;98.00;;;;;;4981156;28;20115;-81
2022/10/20 01:53:12;;;;;;;5.43;3.00;;;7.50;97.90;;;;;;5037811;28;20033;-80
2022/10/20 01:55:39;;;;;;;4.03;3.17;;;7.40;97.90;;;;;;5035765;28;20039;-81
2022/10/20 01:58:29;;;;;;;5.43;2.60;;;7.50;98.00;;;;;;5026373;28;20092;-80
2022/10/20 02:01:03;;;;;;;4.55;2.55;;;7.50;98.00;;;;;;5033854;28;20025;-81
2022/10/20 02:03:37;;;;;;;4.28;2.33;;;7.50;97.80;;;;;;5033544;28;20032;-80
2022/10/20 02:06:17;;;;;;;6.68;2.70;;;7.50;97.80;;;;;;5035131;28;20025;-79
2022/10/20 02:09:05;;;;;;;4.60;2.42;;;7.50;97.80;;;;;;5034897;28;20024;-79
2022/10/20 02:11:52;;;;;;;4.07;2.22;;;7.50;97.80;;;;;;5033775;28;20041;-81
2022/10/20 02:14:20;;;;;;;3.97;2.55;;;7.50;97.70;;;;;;5046693;28;20040;-78
2022/10/20 02:16:56;;;;;;;3.97;2.40;;;7.50;97.80;;;;;;5045899;28;20417;-79
2022/10/20 02:19:27;;;;;;;6.60;2.00;;;7.50;97.80;;;;;;5040525;28;20067;-80
2022/10/20 02:21:55;;;;;;;4.63;2.00;;;7.60;97.70;;;;;;5033858;28;20481;-81
2022/10/20 02:24:25;;;;;;;3.53;2.05;;;7.60;97.50;;;;;;5035147;28;20026;-80
2022/10/20 02:26:54;;;;;;;3.92;2.42;;;7.60;97.20;;;;;;5039362;28;20033;-81
2022/10/20 02:29:26;;;;;;;2.92;1.85;;;7.60;96.90;;;;;;5038130;28;20803;-81
2022/10/20 02:31:53;;;;;;;3.97;1.45;;;7.60;96.50;;;;;;5035299;28;20036;-80
2022/10/20 02:34:19;;;;;;;2.28;1.30;;;7.60;96.40;;;;;;5034637;28;20119;-80
2022/10/20 02:36:45;;;;;;;4.88;1.33;;;7.60;96.00;;;;;;5034772;28;20466;-81
2022/10/20 02:39:14;;;;;;;2.17;1.30;;;7.50;95.70;;;;;;5033664;28;20490;-81
2022/10/20 02:41:40;;;;;;;1.27;1.00;;;7.50;95.40;;;;;;5034640;28;20188;-81
2022/10/20 02:44:05;;;;;;;2.45;1.10;;;7.50;95.10;;;;;;5033928;28;20041;-82
2022/10/20 02:46:31;;;;;;;1.73;1.10;;;7.60;95.20;;;;;;5032714;28;20022;-80
2022/10/20 02:48:57;;;;;;;3.25;1.08;;;7.60;95.00;;;;;;5033984;28;20029;-80
2022/10/20 02:51:23;;;;;;;1.40;0.90;;;7.60;95.00;;;;;;5033997;28;20041;-81
2022/10/20 02:53:49;;;;;;;2.10;1.63;;;7.60;94.80;;;;;;5034097;28;20041;-81
2022/10/20 02:56:14;;;;;;;2.97;2.05;;;7.60;94.80;;;;;;5033635;28;20014;-82
2022/10/20 02:58:40;;;;;;;5.88;2.63;;;7.60;95.10;;;;;;5032528;28;20029;-81
2022/10/20 03:01:06;;;;;;;5.65;2.70;;;7.60;95.50;;;;;;5033042;28;20021;-81
2022/10/20 03:03:32;;;;;;;4.22;3.20;;;7.50;95.80;;;;;;5033572;28;20018;-81
2022/10/20 03:06:05;;;;;;;3.83;3.03;;;7.40;96.10;;;;;;5034223;28;20462;-84
2022/10/20 03:08:31;;;;;;;5.97;3.90;;;7.40;96.50;;;;;;5034180;28;20548;-81
2022/10/20 03:10:56;;;;;;;5.95;4.25;;;7.40;96.80;;;;;;5034171;28;20034;-81
2022/10/20 03:13:22;;;;;;;6.22;4.32;;;7.40;97.20;;;;;;5033590;28;20030;-80
2022/10/20 03:15:48;;;;;;;9.88;8.18;;;7.40;97.30;;;;;;5033867;28;20021;-81
2022/10/20 03:18:14;;;;;;;11.15;9.10;;;7.30;97.60;;;;;;5048937;28;20490;-81
2022/10/20 03:20:40;;;;;;;9.00;7.22;;;7.30;97.70;;;;;;5028181;28;20562;-82
2022/10/20 03:23:05;;;;;;;6.60;5.28;;;7.30;97.80;;;;;;5033507;28;20025;-80
2022/10/20 03:25:31;;;;;;;9.60;6.60;;;7.20;97.90;;;;;;5033937;28;20048;-81
2022/10/20 03:27:57;;;;;;;7.63;5.18;;;7.20;98.20;;;;;;5035517;28;20076;-81
2022/10/20 03:30:26;;;;;;;11.30;6.80;;;7.20;98.30;;;;;;5037456;28;20490;-80
2022/10/20 03:32:52;;;;;;;9.50;6.28;;;7.20;98.40;;;;;;5033933;28;20033;-81
2022/10/20 03:35:18;;;;;;;9.90;6.28;;;7.10;98.80;;;;;;5034201;28;20036;-81
2022/10/20 03:37:49;;;;;;;8.38;6.47;;;7.20;98.70;;;;;;5033255;28;20026;-80
2022/10/20 03:40:14;;;;;;;8.50;7.15;;;7.20;98.80;;;;;;5033077;28;20083;-80
2022/10/20 03:42:40;;;;;;;11.05;8.68;;;7.20;98.80;;;;;;5033188;28;20096;-80
2022/10/20 03:45:06;;;;;;;14.10;8.95;;;7.20;98.90;;;;;;5034079;28;20028;-81
2022/10/20 03:47:32;;;;;;;18.58;13.43;;;7.20;99.00;;;;;;5034463;28;20068;-81
2022/10/20 03:49:58;;;;;;;13.48;10.32;;;7.10;99.20;;;;;;5034082;28;20049;-81
2022/10/20 03:52:24;;;;;;;13.15;10.20;;;7.10;99.50;;;;;;5033348;28;20029;-81
2022/10/20 03:54:50;;;;;;;17.48;12.00;;;7.10;99.60;;;;;;5032301;28;20026;-79
2022/10/20 03:57:16;;;;;;;17.13;10.23;;;7.10;99.70;;;;;;5022017;28;20493;-80
2022/10/20 03:59:42;;;;;;;12.00;10.52;;;7.10;99.80;;;;;;5033779;28;20025;-80
2022/10/20 04:02:28;;;;;;;14.57;10.23;;;7.10;99.70;;;;;;5036680;28;20493;-81
2022/10/20 04:04:55;;;;;;;12.63;9.65;;;7.10;99.90;;;;;;5039152;28;20474;-83
2022/10/20 04:07:20;;;;;;;17.17;11.48;;;7.10;99.90;;;;;;5033354;28;20022;-80
2022/10/20 04:09:46;;;;;;;13.10;10.77;;;7.10;99.90;;;;;;5033534;28;20033;-80
2022/10/20 04:12:12;;;;;;;13.48;10.60;;;6.90;99.90;;;;;;5043851;28;20036;-81
2022/10/20 04:14:39;;;;;;;16.27;12.25;;;6.80;99.90;;;;;;5034129;28;20029;-81
2022/10/20 04:17:05;;;;;;;15.98;12.15;;;6.70;99.90;;;;;;5032932;28;20047;-82
2022/10/20 04:19:31;;;;;;;20.70;14.85;;;6.50;99.90;;;;;;5032848;28;20183;-83
2022/10/20 04:21:57;;;;;;;12.15;10.50;;;6.50;99.90;;;;;;5030263;28;20021;-83
2022/10/20 04:24:23;;;;;;;15.40;10.88;;;6.40;99.90;;;;;;5033248;28;20067;-82
2022/10/20 04:26:49;;;;;;;16.98;11.68;;;6.30;99.90;;;;;;5032073;28;20473;-81
2022/10/20 04:29:14;;;;;;;12.95;9.82;;;6.40;99.90;;;;;;5033129;28;20032;-83
2022/10/20 04:31:40;;;;;;;13.15;9.23;;;6.30;99.90;;;;;;5033935;28;20048;-82
2022/10/20 04:34:06;;;;;;;8.35;7.00;;;6.20;99.90;;;;;;5035807;28;20394;-82
2022/10/20 04:36:32;;;;;;;11.80;9.98;;;6.20;99.90;;;;;;5032865;28;20017;-82
2022/10/20 04:38:58;;;;;;;10.05;8.90;;;6.10;99.90;;;;;;5032136;28;20089;-82
2022/10/20 04:41:31;;;;;;;10.98;8.93;;;6.10;99.90;;;;;;5032090;28;20014;-83
2022/10/20 04:43:57;;;;;;;15.02;10.25;;;6.10;99.90;;;;;;5032983;28;20060;-82
2022/10/20 04:46:25;;;;;;;17.00;12.25;;;6.00;99.90;;;;;;5031930;28;20365;-81
2022/10/20 04:48:52;;;;;;;13.13;8.85;;;6.00;99.90;;;;;;5032176;28;20099;-82
2022/10/20 04:51:18;;;;;;;14.13;9.05;;;6.10;99.90;;;;;;5032012;28;20028;-85
2022/10/20 04:53:44;;;;;;;11.90;9.07;;;6.10;99.90;;;;;;5030998;28;20036;-84
2022/10/20 04:56:17;;;;;;;12.45;7.72;;;6.10;99.90;;;;;;5031491;28;20018;-82
2022/10/20 04:58:46;;;;;;;12.70;9.18;;;6.20;99.90;;;;;;5020459;28;20037;-81
2022/10/20 05:01:12;;;;;;;15.32;11.25;;;6.30;99.90;;;;;;5048870;28;20047;-81
2022/10/20 05:03:38;;;;;;;15.27;9.93;;;6.30;99.90;;;;;;5035766;28;20021;-78
2022/10/20 05:06:11;;;;;;;17.08;8.57;;;6.30;99.90;;;;;;5033385;28;20033;-79
2022/10/20 05:08:37;;;;;;;15.70;12.00;;;6.40;99.90;;;;;;5034016;28;20018;-80
2022/10/20 05:11:03;;;;;;;13.40;9.93;;;6.40;99.90;;;;;;5039490;28;20013;-81
2022/10/20 05:13:29;;;;;;;11.70;8.98;;;6.50;99.90;;;;;;5038376;28;20429;-82
2022/10/20 05:15:55;;;;;;;11.90;9.00;;;6.60;99.90;;;;;;5045301;28;20045;-80
2022/10/20 05:18:21;;;;;;;13.63;9.10;;;6.70;99.90;;;;;;5030371;28;20481;-80
2022/10/20 05:20:47;;;;;;;17.30;9.35;;;6.70;99.90;;;;;;5037238;28;20481;-81
2022/10/20 05:23:12;;;;;;;13.57;9.50;;;6.70;99.90;;;;;;5037121;28;20029;-80
2022/10/20 05:25:38;;;;;;;11.10;9.73;;;6.70;99.90;;;;;;5034798;28;20014;-81
2022/10/20 05:28:05;;;;;;;17.48;12.40;;;6.80;99.90;;;;;;5035856;28;20421;-80
2022/10/20 05:30:36;;;;;;;15.90;11.23;;;6.80;99.90;;;;;;5035523;28;20466;-82
2022/10/20 05:33:03;;;;;;;16.50;13.13;;;6.80;99.90;;;;;;5030908;28;20029;-80
2022/10/20 05:35:29;;;;;;;16.08;11.98;;;6.80;99.90;;;;;;5031348;28;20021;-81
2022/10/20 05:37:56;;;;;;;13.15;11.80;;;6.70;99.90;;;;;;5034568;28;20437;-81
2022/10/20 05:40:22;;;;;;;18.02;12.18;;;6.70;99.90;;;;;;5035931;28;20028;-82
2022/10/20 05:42:48;;;;;;;16.95;12.40;;;6.80;99.90;;;;;;5018465;28;20390;-82
2022/10/20 05:45:14;;;;;;;20.95;12.77;;;6.80;99.90;;;;;;5036343;28;20031;-82
2022/10/20 05:47:41;;;;;;;14.48;11.60;;;6.90;99.90;;;;;;5026981;28;20101;-81
2022/10/20 05:50:08;;;;;;;11.98;10.13;;;6.90;99.90;;;;;;5045517;28;20056;-80
2022/10/20 05:52:35;;;;;;;16.33;9.55;;;7.00;99.90;;;;;;5039460;28;20208;-83
2022/10/20 05:55:02;;;;;;;12.32;8.57;;;7.00;99.90;;;;;;5037037;28;20061;-81
2022/10/20 05:57:30;;;;;;;11.77;9.00;;;7.00;99.90;;;;;;5042572;28;20088;-80
2022/10/20 05:59:56;;;;;;;15.90;9.88;;;7.00;99.90;;;;;;5037825;28;20070;-82
2022/10/20 06:02:21;;;;;;;12.43;8.40;;;7.00;99.90;;;;;;5043322;28;20036;-83
2022/10/20 06:04:47;;;;;;;8.90;7.47;;;7.00;99.90;;;;;;5038962;28;20026;-82
2022/10/20 06:07:13;;;;;;;12.90;8.70;;;7.10;99.70;;;;;;5040780;28;20045;-82
2022/10/20 06:09:39;;;;;;;9.30;6.57;;;7.10;99.70;;;;;;5043554;28;20147;-82
2022/10/20 06:12:05;;;;;;;10.43;7.35;;;7.20;98.40;;;;;;5032739;28;20105;-84
2022/10/20 06:14:32;;;;;;;8.68;5.82;;;7.20;97.80;;;;;;5017092;28;20030;-82
2022/10/20 06:16:57;;;;;;;8.65;6.50;;;7.20;97.40;;;;;;5019310;28;20049;-83
2022/10/20 06:19:25;;;;;;;8.45;6.10;;;7.20;97.00;;;;;;5023717;28;20064;-81
2022/10/20 06:21:50;;;;;;;10.57;5.53;;;7.30;96.50;;;;;;5027013;28;20024;-81
2022/10/20 06:24:17;;;;;;;9.00;6.30;;;7.40;96.10;;;;;;5019981;28;20108;-80
2022/10/20 06:26:43;;;;;;;7.47;5.53;;;7.40;95.70;;;;;;5030838;28;20027;-80
2022/10/20 06:29:12;;;;;;;10.23;7.18;;;7.40;95.80;;;;;;5033263;28;20030;-79
2022/10/20 06:31:41;;;;;;;11.55;6.55;;;7.50;95.40;;;;;;5034710;28;20104;-83
2022/10/20 06:34:11;;;;;;;11.93;6.30;;;7.60;95.10;;;;;;5030859;28;20121;-80
2022/10/20 06:36:39;;;;;;;13.27;6.03;;;7.60;95.20;;;;;;5018286;28;20022;-78
2022/10/20 06:39:09;;;;;;;11.27;6.68;;;7.80;94.80;;;;;;5035174;28;20040;-81
2022/10/20 06:41:35;;;;;;;5.82;4.47;;;7.90;94.40;;;;;;5034494;28;20447;-82
2022/10/20 06:44:01;;;;;;;6.65;5.05;;;7.90;93.70;;;;;;5032718;28;20116;-81
2022/10/20 06:46:30;;;;;;;11.52;5.13;;;8.00;93.40;;;;;;5034461;28;20026;-79
2022/10/20 06:49:00;;;;;;;6.55;4.82;;;8.10;92.80;;;;;;5033212;28;20493;-79
2022/10/20 06:51:26;;;;;;;10.35;5.40;;;8.20;92.10;;;;;;5035977;28;20811;-79
2022/10/20 06:53:52;;;;;;;9.10;5.15;;;8.20;92.10;;;;;;5035807;28;20032;-81
2022/10/20 06:56:23;;;;;;;10.57;4.70;;;8.30;91.70;;;;;;5036698;28;20076;-79
2022/10/20 06:58:52;;;;;;;7.63;4.50;;;8.20;90.90;;;;;;5034775;28;20044;-81
2022/10/20 07:01:22;;;;;;;7.32;4.45;;;8.20;91.30;;;;;;5034917;28;20022;-81
2022/10/20 07:03:49;;;;;;;7.57;4.65;;;8.20;91.00;;;;;;5035191;28;20045;-81
2022/10/20 07:06:18;;;;;;;6.18;4.28;;;8.20;90.70;;;;;;5035301;28;20558;-81
2022/10/20 07:08:44;;;;;;;9.98;5.13;;;8.20;90.50;;;;;;5034421;28;20038;-79
2022/10/20 07:11:16;;;;;;;5.65;3.92;;;8.20;90.60;;;;;;5034861;28;20370;-80
2022/10/20 07:13:43;;;;;;;4.88;3.70;;;8.20;89.70;;;;;;5035313;28;20029;-78
2022/10/20 07:16:12;;;;;;;6.38;3.97;;;8.00;89.10;;;;;;5035611;28;20465;-79
2022/10/20 07:18:38;;;;;;;8.10;4.45;;;7.80;89.40;;;;;;5033756;28;20025;-79
2022/10/20 07:21:08;;;;;;;6.75;4.70;;;7.60;89.60;;;;;;5034522;28;20095;-79
2022/10/20 07:23:35;;;;;;;11.88;4.55;;;7.50;90.10;;;;;;5035866;28;20525;-80
2022/10/20 07:26:11;;;;;;;7.53;3.83;;;7.40;90.50;;;;;;5034842;28;20700;-80
2022/10/20 07:28:41;;;;;;;6.13;4.57;;;7.30;90.60;;;;;;5033889;28;20067;-81
2022/10/20 07:31:13;;;;;;;9.18;5.03;;;7.30;90.50;;;;;;5034137;28;20018;-80
2022/10/20 07:33:39;;;;;;;8.40;4.68;;;7.30;90.90;;;;;;5034504;28;20029;-80
2022/10/20 07:36:17;;;;;;;5.95;4.15;;;7.30;90.70;;;;;;5035977;28;20029;-80
2022/10/20 07:38:44;;;;;;;7.72;4.93;;;7.30;90.70;;;;;;5039770;28;20050;-80
2022/10/20 07:41:10;;;;;;;10.07;5.27;;;7.30;90.70;;;;;;5034534;28;20025;-79
2022/10/20 07:43:37;;;;;;;6.82;4.50;;;7.40;90.60;;;;;;5033907;28;20025;-79
2022/10/20 07:46:04;;;;;;;7.38;5.32;;;7.50;90.40;;;;;;5034204;28;20567;-79
2022/10/20 07:48:32;;;;;;;11.35;5.70;;;7.80;90.20;;;;;;5032930;28;20098;-80
2022/10/20 07:51:33;;;;;;;5.07;3.30;;;8.30;90.10;;;;;;5033531;28;20029;-80
2022/10/20 07:54:07;;;;;;;5.85;3.80;;;8.80;87.30;;;;;;5032111;28;20132;-80
2022/10/20 07:56:39;;;;;;;7.47;3.40;;;9.00;84.10;;;;;;5034829;28;20017;-78
2022/10/20 07:59:06;;;;;;;4.97;3.47;;;9.10;82.50;;;;;;5035713;28;20144;-79
2022/10/20 08:01:33;;;;;;;12.02;2.78;;;9.10;81.40;;;;;;5035433;28;20109;-80
2022/10/20 08:03:59;;;;;;;13.23;3.78;;;9.20;81.30;;;;;;5037179;28;20028;-81
2022/10/20 08:06:25;;;;;;;12.25;4.00;;;9.30;80.40;;;;;;5040343;28;20021;-79
2022/10/20 08:08:51;;;;;;;9.57;3.40;;;9.30;79.70;;;;;;5041074;28;20465;-79
2022/10/20 08:11:17;;;;;;;6.90;2.95;;;9.40;79.50;;;;;;5039784;28;20036;-79
2022/10/20 08:13:43;;;;;;;4.50;2.75;;;9.70;78.80;;;;;;5035753;28;20441;-80
2022/10/20 08:16:12;;;;;;;6.10;2.80;;;9.80;77.10;;;;;;5036475;28;20017;-79
2022/10/20 08:18:38;;;;;;;3.80;2.78;;;9.80;76.00;;;;;;5033231;28;20175;-80
2022/10/20 08:21:11;;;;;;;6.00;3.42;;;9.70;74.90;;;;;;5033715;28;20088;-81
2022/10/20 08:23:39;;;;;;;5.60;3.30;;;9.70;74.80;;;;;;5034836;28;20522;-79
2022/10/20 08:26:05;;;;;;;5.80;3.47;;;9.60;74.10;;;;;;5035073;28;20489;-80
2022/10/20 08:28:31;;;;;;;6.00;3.05;;;9.40;74.60;;;;;;5035646;28;20128;-79
2022/10/20 08:30:56;;;;;;;4.28;3.42;;;9.20;74.10;;;;;;5035120;28;20049;-80
2022/10/20 08:33:22;;;;;;;7.13;4.35;;;8.90;75.40;;;;;;5034204;28;20134;-80
2022/10/20 08:35:48;;;;;;;5.32;3.78;;;8.80;76.70;;;;;;5033814;28;20375;-78
2022/10/20 08:38:14;;;;;;;5.15;3.42;;;8.60;76.90;;;;;;5032080;28;20117;-80
2022/10/20 08:40:42;;;;;;;5.10;4.07;;;8.50;78.10;;;;;;5032010;28;20083;-80
2022/10/20 08:43:14;;;;;;;;;;;8.40;78.40;;;;;;5032890;28;20022;-79
2022/10/20 08:45:40;;;;;;;5.63;4.35;;;8.30;78.90;;;;;;5034072;28;19928;-79
2022/10/20 08:48:15;;;;;;;3.38;2.65;;;8.30;78.90;;;;;;5034909;28;20470;-82
2022/10/20 08:50:46;;;;;;;4.15;2.67;;;8.30;77.90;;;;;;5034776;28;20057;-79
2022/10/20 08:53:12;;;;;;;3.03;2.10;;;8.30;77.10;;;;;;5032792;28;20037;-79
2022/10/20 08:55:38;;;;;;;3.10;2.35;;;8.40;74.90;;;;;;5033757;28;20022;-78
2022/10/20 08:58:10;;;;;;;6.22;2.90;;;8.40;75.10;;;;;;5033302;28;20029;-79
2022/10/20 09:00:37;;;;;;;4.07;2.67;;;8.40;75.40;;;;;;5031200;28;20022;-79
2022/10/20 09:03:26;;;;;;;3.65;2.08;;;8.20;75.20;;;;;;5032354;28;20600;-79
2022/10/20 09:06:11;;;;;;;3.13;2.35;;;8.20;75.80;;;;;;5033022;28;20025;-79
2022/10/20 09:08:38;;;;;;;3.13;2.08;;;8.30;76.30;;;;;;5033293;28;20021;-80
2022/10/20 09:11:07;;;;;;;6.75;2.70;;;8.40;75.00;;;;;;5032273;28;20033;-80
2022/10/20 09:13:35;;;;;;;3.72;2.95;;;8.40;75.40;;;;;;5032906;28;20033;-80
2022/10/20 09:16:12;;;;;;;6.60;3.80;;;8.40;75.90;;;;;;5033075;28;20551;-80
2022/10/20 09:18:38;;;;;;;6.35;3.30;;;8.50;75.90;;;;;;5031381;28;20435;-80
2022/10/20 09:21:15;;;;;;;3.67;1.88;;;8.30;76.20;;;;;;5032030;28;20026;-81
2022/10/20 09:23:48;;;;;;;4.22;2.28;;;8.30;75.50;;;;;;5036629;28;20025;-79
2022/10/20 09:26:30;;;;;;;4.22;2.30;;;8.20;75.50;;;;;;5033536;28;20017;-80
2022/10/20 09:29:07;;;;;;;6.22;2.38;;;8.20;76.00;;;;;;5032205;28;20029;-79
2022/10/20 09:31:37;;;;;;;3.00;2.25;;;8.30;75.80;;;;;;5032153;28;20021;-80
2022/10/20 09:34:28;;;;;;;3.25;2.10;;;8.30;75.30;;;;;;5031659;28;20449;-79
2022/10/20 09:37:08;;;;;;;4.95;2.92;;;8.20;75.70;;;;;;5032146;28;20021;-80
2022/10/20 09:39:54;;;;;;;8.95;2.75;;;8.20;76.00;;;;;;5032316;28;20029;-81
2022/10/20 09:42:30;;;;;;;4.00;2.70;;;8.20;75.90;;;;;;5033921;28;20542;-81
2022/10/20 09:45:00;;;;;;;4.28;2.55;;;8.20;76.20;;;;;;5036162;28;20025;-80
2022/10/20 09:47:27;;;;;;;3.60;2.28;;;8.20;76.30;;;;;;5032508;28;20036;-80
2022/10/20 09:50:18;;;;;;;3.20;2.03;;;8.00;76.80;;;;;;5031729;28;20039;-80
2022/10/20 09:52:47;;;;;;;5.82;2.72;;;8.00;77.70;;;;;;5021230;28;20049;-80
2022/10/20 09:55:25;;;;;;;3.90;3.03;;;7.90;78.40;;;;;;5033397;28;20026;-81
2022/10/20 09:57:53;;;;;;;4.60;2.95;;;7.90;79.20;;;;;;5035124;28;20014;-80
2022/10/20 10:00:24;;;;;;;5.70;2.53;;;7.90;79.50;;;;;;5035671;28;20036;-81
2022/10/20 10:03:20;;;;;;;5.63;2.60;;;7.80;79.50;;;;;;5036507;28;20121;-79
2022/10/20 10:05:51;;;;;;;3.13;2.13;;;7.70;80.20;;;;;;5037219;28;20034;-80
2022/10/20 10:08:19;;;;;;;4.30;3.00;;;7.70;80.30;;;;;;5036806;28;20367;-80
2022/10/20 10:10:57;;;;;;;4.95;3.08;;;7.60;80.60;;;;;;5037875;28;20490;-82
2022/10/20 10:13:26;;;;;;;2.63;2.05;;;7.70;80.90;;;;;;5038623;28;20088;-80
2022/10/20 10:16:01;;;;;;;3.67;2.20;;;7.70;79.70;;;;;;5038363;28;20478;-79
2022/10/20 10:18:27;;;;;;;3.90;2.20;;;7.70;79.50;;;;;;5036119;28;20025;-80
2022/10/20 10:21:08;;;;;;;3.90;2.40;;;7.70;79.10;;;;;;5035007;28;20021;-80
2022/10/20 10:23:48;;;;;;;3.13;1.95;;;7.70;79.20;;;;;;5037597;28;20106;-81
2022/10/20 10:26:38;;;;;;;3.90;2.42;;;7.70;79.40;;;;;;5033784;28;20125;-80
2022/10/20 10:29:14;;;;;;;5.70;2.28;;;7.70;78.70;;;;;;5050092;28;20025;-81
2022/10/20 10:31:49;;;;;;;6.35;2.50;;;7.80;79.00;;;;;;5034897;28;20022;-80
2022/10/20 10:34:15;;;;;;;4.25;2.25;;;7.80;78.70;;;;;;5034182;28;20120;-80
2022/10/20 10:36:41;;;;;;;2.85;1.60;;;7.90;78.60;;;;;;5034741;28;20457;-80
2022/10/20 10:39:13;;;;;;;3.53;2.15;;;7.90;77.50;;;;;;5034414;28;20367;-79
2022/10/20 10:42:13;;;;;;;3.42;2.00;;;7.90;78.20;;;;;;5034388;28;20041;-80
2022/10/20 10:44:52;;;;;;;3.67;2.42;;;7.90;78.30;;;;;;5034012;28;20017;-80
2022/10/20 10:47:49;;;;;;;3.33;2.20;;;7.80;78.40;;;;;;5034158;28;20080;-80
2022/10/20 10:50:33;;;;;;;;;;;7.80;78.90;;;;;;5035121;28;20091;-79
2022/10/20 10:53:23;;;;;;;4.75;3.00;;;7.80;79.30;;;;;;5021445;28;19913;-80
2022/10/20 10:56:14;;;;;;;3.38;2.47;;;7.80;79.70;;;;;;5034457;28;20032;-79
2022/10/20 10:59:04;;;;;;;3.85;2.63;;;7.90;79.50;;;;;;5034806;28;20013;-78
2022/10/20 11:02:01;;;;;;;3.08;1.55;;;7.90;78.30;;;;;;5032915;28;20023;-80
2022/10/20 11:04:27;;;;;;;6.30;2.53;;;7.90;77.30;;;;;;5033918;28;20056;-80
2022/10/20 11:07:04;;;;;;;3.70;2.35;;;7.90;77.30;;;;;;5034696;28;20061;-80
2022/10/20 11:10:03;;;;;;;3.65;1.95;;;7.90;77.20;;;;;;5036831;28;20390;-79
2022/10/20 11:12:53;;;;;;;4.95;2.55;;;8.00;77.60;;;;;;5036916;28;20013;-81
2022/10/20 11:15:27;;;;;;;2.22;1.88;;;7.90;77.60;;;;;;5036903;28;20374;-80
2022/10/20 11:18:30;;;;;;;6.35;3.08;;;7.90;77.80;;;;;;5034894;28;20728;-79
2022/10/20 11:21:18;;;;;;;7.25;2.63;;;8.00;78.30;;;;;;5034077;28;20061;-80
2022/10/20 11:24:02;;;;;;;4.75;2.20;;;8.00;78.20;;;;;;5033766;28;20025;-80
2022/10/20 11:26:39;;;;;;;3.10;1.95;;;7.90;78.40;;;;;;5033648;28;20026;-81
2022/10/20 11:29:20;;;;;;;5.40;2.30;;;7.70;78.60;;;;;;5033950;28;20022;-82
2022/10/20 11:31:58;;;;;;;4.80;2.47;;;7.70;79.20;;;;;;5034006;28;20045;-81
2022/10/20 11:34:34;;;;;;;3.38;2.15;;;7.60;79.70;;;;;;5033614;28;20108;-81
2022/10/20 11:37:23;;;;;;;4.78;2.03;;;7.60;79.80;;;;;;5034120;28;20076;-81
2022/10/20 11:40:10;;;;;;;2.70;1.63;;;7.60;80.40;;;;;;5032366;28;20087;-79
2022/10/20 11:42:46;;;;;;;5.95;2.22;;;7.70;80.30;;;;;;5033322;28;20037;-79
2022/10/20 11:45:31;;;;;;;6.28;1.92;;;7.80;80.00;;;;;;5033542;28;20431;-80
2022/10/20 11:48:16;;;;;;;3.60;1.95;;;7.90;79.80;;;;;;5033405;28;20023;-80
2022/10/20 11:50:49;;;;;;;6.43;2.80;;;7.90;79.50;;;;;;5031864;28;20470;-80
2022/10/20 11:53:44;;;;;;;3.03;1.80;;;7.90;79.60;;;;;;5034724;28;20031;-80
2022/10/20 11:56:37;;;;;;;3.38;1.55;;;7.90;79.10;;;;;;5037338;28;20028;-81
2022/10/20 11:59:23;;;;;;;3.40;1.70;;;7.90;78.40;;;;;;5035662;28;20029;-81
2022/10/20 12:02:21;;;;;;;4.18;1.17;;;7.80;77.80;;;;;;5022505;28;20083;-81
2022/10/20 12:05:04;;;;;;;2.17;1.25;;;7.70;77.10;;;;;;5034499;28;20026;-80
2022/10/20 12:08:17;;;;;;;1.92;1.20;;;7.70;76.60;;;;;;5034152;28;20018;-81
2022/10/20 12:11:11;;;;;;;2.08;1.35;;;7.70;76.40;;;;;;5034813;28;20026;-83
2022/10/20 12:13:55;;;;;;;2.60;1.60;;;7.70;76.40;;;;;;5035366;28;20034;-79
2022/10/20 12:16:57;;;;;;;2.47;1.50;;;7.80;76.70;;;;;;5038429;28;20379;-79
2022/10/20 12:19:28;;;;;;;3.25;2.10;;;7.70;76.90;;;;;;5037959;28;20025;-79
2022/10/20 12:22:00;;;;;;;5.10;2.03;;;7.70;77.50;;;;;;5034869;28;20025;-80
2022/10/20 12:24:38;;;;;;;4.55;1.90;;;7.70;77.90;;;;;;5034108;28;20026;-81
2022/10/20 12:27:07;;;;;;;3.92;1.98;;;7.60;78.30;;;;;;5033916;28;20029;-80
2022/10/20 12:29:33;;;;;;;5.22;2.17;;;7.60;78.80;;;;;;5034753;28;20017;-79
2022/10/20 12:32:33;;;;;;;5.10;2.25;;;7.60;79.20;;;;;;5034623;28;20040;-79
2022/10/20 12:35:20;;;;;;;2.85;2.05;;;7.70;79.50;;;;;;5035109;28;20037;-80
2022/10/20 12:38:02;;;;;;;4.15;2.08;;;7.70;79.30;;;;;;5020663;28;20037;-82
2022/10/20 12:40:39;;;;;;;4.10;2.28;;;7.70;79.60;;;;;;5033924;28;20026;-80
2022/10/20 12:43:05;;;;;;;4.50;2.38;;;7.70;79.20;;;;;;5034411;28;20025;-80
2022/10/20 12:45:39;;;;;;;6.63;2.65;;;7.70;79.50;;;;;;5033548;28;20022;-81
2022/10/20 12:48:08;;;;;;;5.40;1.52;;;7.70;79.80;;;;;;5033278;28;20029;-79
2022/10/20 12:50:48;;;;;;;2.88;1.65;;;7.60;78.50;;;;;;5034525;28;20063;-81
2022/10/20 12:53:17;;;;;;;3.55;1.88;;;7.50;77.40;;;;;;5034282;28;20084;-79
2022/10/20 12:55:59;;;;;;;3.53;1.40;;;7.40;77.40;;;;;;5034722;28;20436;-80
2022/10/20 12:58:32;;;;;;;4.03;1.63;;;7.50;77.90;;;;;;5036728;28;20025;-80
2022/10/20 13:00:58;;;;;;;2.80;1.25;;;7.60;77.40;;;;;;5033221;28;20105;-80
2022/10/20 13:03:42;;;;;;;4.82;2.00;;;7.70;77.30;;;;;;5035374;28;20057;-80
2022/10/20 13:06:28;;;;;;;2.80;2.22;;;7.70;77.20;;;;;;5032106;28;20481;-80
2022/10/20 13:09:04;;;;;;;4.53;2.75;;;7.70;77.80;;;;;;5033097;28;20486;-79
2022/10/20 13:11:36;;;;;;;6.05;2.45;;;7.70;78.70;;;;;;5034162;28;20025;-80
2022/10/20 13:14:11;;;;;;;6.28;2.38;;;7.70;79.30;;;;;;5034673;28;20033;-79
2022/10/20 13:16:58;;;;;;;6.60;2.35;;;7.70;80.30;;;;;;5034700;28;20032;-80
2022/10/20 13:19:43;;;;;;;;;;;7.60;79.90;;;;;;5049976;28;20097;-80
2022/10/20 13:22:27;;;;;;;5.03;2.90;;;7.50;80.00;;;;;;5034071;28;19963;-79